Flight Track Log - Related Links

Times and Time Zones

All times are in EDT time to prevent confusion due to time zone crossing. See the LXJ537 flight status page for this flight to view local times or setup timezone preferences in your user account.

Time Position Orientation Groundspeed Altitude Reporting Facility
EDT Latitude Longitude Course Direction KTS MPH feet Rate Location/Type
Sun 02:43:47 PM 42.3833 -87.8500 167° South 252 290 3,000  Level Chicago TRACON
Sun 02:44:06 PM 42.3617 -87.8617 202° Southwest 254 292 3,000 1,111 Level Chicago Center
Sun 02:45:08 PM 42.3111 -87.9272 224° Southwest 276 318 4,500 3,726 Climbing Chicago Center
Sun 02:46:10 PM 42.2372 -87.9958 215° Southwest 283 326 10,700 4,694 Climbing Chicago Center
Sun 02:47:12 PM 42.1533 -87.9944 179° South 302 348 14,200 3,387 Climbing Chicago Center
Sun 02:48:14 PM 42.0742 -87.9564 160° South 304 350 17,700 3,242 Climbing Chicago Center
Sun 02:49:00 PM 41.8735 -87.7020 167° South  Level FlightAware Approximate
Sun 02:49:16 PM 41.9925 -87.9094 157° South 316 364 20,900  Level Chicago Center
Sun 02:50:18 PM 41.9058 -87.8558 155° Southeast 342 394 22,900 2,274 Climbing Chicago Center
Sun 02:51:20 PM 41.8075 -87.7981 156° South 383 441 25,600 2,832 Climbing Chicago Center
Sun 02:52:23 PM 41.6878 -87.7250 155° Southeast 393 452 28,800 2,832 Climbing Chicago Center
Sun 02:53:25 PM 41.5836 -87.6639 156° South 404 465 31,500 2,516 Climbing Chicago Center
Sun 02:54:27 PM 41.4800 -87.6036 156° South 405 466 34,000 2,064 Climbing Chicago Center
Sun 02:55:30 PM 41.3736 -87.5636 164° South 400 460 35,800 1,016 Climbing Chicago Center
Sun 02:56:31 PM 41.2628 -87.5444 173° South 399 459 36,100 98 Climbing Chicago Center
Sun 02:57:33 PM 41.1519 -87.5211 171° South 402 463 36,000 -48 Descending Chicago Center
Sun 02:58:35 PM 41.0219 -87.4856 168° South 399 459 36,000  Level Chicago Center
Sun 02:59:37 PM 40.9136 -87.4558 168° South 398 458 36,000  Level Chicago Center
Sun 03:00:39 PM 40.8042 -87.4294 170° South 401 461 36,000 968 Level Chicago Center
Sun 03:01:41 PM 40.6975 -87.3997 168° South 393 452 38,000 1,597 Climbing Chicago Center
Sun 03:02:43 PM 40.5928 -87.3722 169° South 386 444 39,300 1,113 Climbing Chicago Center
Sun 03:03:45 PM 40.4822 -87.3428 169° South 401 461 40,300 823 Climbing Chicago Center
Sun 03:04:47 PM 40.3639 -87.2944 163° South 416 479 41,000 339 Climbing Chicago Center
Sun 03:05:49 PM 40.2522 -87.2400 160° South 428 493 41,000  Level Chicago Center
Sun 03:06:51 PM 40.1181 -87.1728 159° South 431 496 41,000  Level Chicago Center
Sun 03:07:26 PM 40.0528 -87.1244 150° Southeast 436 502 41,000  Level Indianapolis Center
Sun 03:08:28 PM 39.9506 -87.0411 148° Southeast 436 502 41,000  Level Indianapolis Center
Sun 03:09:30 PM 39.8494 -86.9578 148° Southeast 435 501 41,000  Level Indianapolis Center
Sun 03:10:32 PM 39.7472 -86.8761 148° Southeast 435 501 41,000  Level Indianapolis Center
Sun 03:11:34 PM 39.6456 -86.7928 148° Southeast 437 503 41,000  Level Indianapolis Center
Sun 03:12:36 PM 39.5211 -86.6933 148° Southeast 442 509 41,000  Level Indianapolis Center
Sun 03:13:38 PM 39.4178 -86.6100 148° Southeast 443 510 41,000  Level Indianapolis Center
Sun 03:14:40 PM 39.3133 -86.5256 148° Southeast 446 513 41,000  Level Indianapolis Center
Sun 03:15:42 PM 39.2092 -86.4419 148° Southeast 445 512 41,000  Level Indianapolis Center
Sun 03:16:44 PM 39.1044 -86.3586 148° Southeast 446 513 41,000  Level Indianapolis Center
Sun 03:17:46 PM 38.9781 -86.2572 148° Southeast 448 516 41,000  Level Indianapolis Center
Sun 03:18:48 PM 38.8842 -86.1836 149° Southeast 445 512 41,000  Level Indianapolis Center
Sun 03:19:51 PM 38.7778 -86.1008 149° Southeast 443 510 41,000  Level Indianapolis Center
Sun 03:20:53 PM 38.6514 -86.0017 148° Southeast 440 506 41,000  Level Indianapolis Center
Sun 03:21:55 PM 38.5461 -85.9189 148° Southeast 440 506 41,000  Level Indianapolis Center
Sun 03:22:57 PM 38.4414 -85.8375 149° Southeast 437 503 41,000  Level Indianapolis Center
Sun 03:23:59 PM 38.3364 -85.7564 149° Southeast 436 502 41,000  Level Indianapolis Center
Sun 03:25:01 PM 38.2317 -85.6756 149° Southeast 437 503 41,000  Level Indianapolis Center
Sun 03:26:03 PM 38.1253 -85.5939 149° Southeast 441 507 41,000  Level Indianapolis Center
Sun 03:27:05 PM 38.0067 -85.5514 164° South 439 505 41,000  Level Indianapolis Center
Sun 03:28:07 PM 37.8869 -85.5186 168° South 437 503 41,000  Level Indianapolis Center
Sun 03:29:09 PM 37.7556 -85.4831 168° South 430 495 41,000  Level Indianapolis Center
Sun 03:30:11 PM 37.6381 -85.4517 168° South 432 497 41,000  Level Indianapolis Center
Sun 03:31:13 PM 37.5000 -85.4164 169° South 430 495 41,000  Level Indianapolis Center
Sun 03:32:15 PM 37.3831 -85.3842 168° South 430 495 41,000  Level Indianapolis Center
Sun 03:33:17 PM 37.2653 -85.3536 168° South 431 496 41,000  Level Indianapolis Center
Sun 03:34:19 PM 37.1464 -85.3214 168° South 436 502 41,000  Level Indianapolis Center
Sun 03:35:21 PM 37.0331 -85.2911 168° South 433 498 41,000  Level Indianapolis Center
Sun 03:36:23 PM 36.8936 -85.2550 168° South 427 491 41,000  Level Indianapolis Center
Sun 03:37:26 PM 36.7775 -85.2244 168° South 426 490 41,000  Level Indianapolis Center
Sun 03:38:28 PM 36.6622 -85.1942 168° South 423 487 41,000  Level Indianapolis Center
Sun 03:39:30 PM 36.5486 -85.1656 169° South 418 481 41,000  Level Indianapolis Center
Sun 03:40:32 PM 36.4342 -85.1358 168° South 419 482 41,000  Level Indianapolis Center
Sun 03:41:34 PM 36.3186 -85.1064 168° South 422 486 41,000  Level Indianapolis Center
Sun 03:42:36 PM 36.1808 -85.0706 168° South 423 487 41,000  Level Indianapolis Center
Sun 03:43:38 PM 36.0639 -85.0400 168° South 429 494 41,000  Level Indianapolis Center
Sun 03:43:58 PM 36.0231 -85.0322 171° South 431 496 41,000  Level Atlanta Center
Sun 03:44:57 PM 35.9044 -85.0000 168° South 431 496 41,000  Level Atlanta Center
Sun 03:45:58 PM 35.7856 -84.9706 169° South 439 505 41,000  Level Atlanta Center
Sun 03:46:58 PM 35.6669 -84.9411 169° South 433 498 41,000  Level Atlanta Center
Sun 03:47:57 PM 35.5503 -84.9117 168° South 433 498 41,000  Level Atlanta Center
Sun 03:48:57 PM 35.4317 -84.8797 168° South 433 498 41,000  Level Atlanta Center
Sun 03:49:58 PM 35.3172 -84.8533 169° South 433 498 41,000  Level Atlanta Center
Sun 03:50:58 PM 35.1983 -84.8242 169° South 433 498 41,000  Level Atlanta Center
Sun 03:51:58 PM 35.0839 -84.7925 167° South 433 498 41,000  Level Atlanta Center
Sun 03:52:58 PM 34.9672 -84.7661 169° South 428 493 41,000  Level Atlanta Center
Sun 03:53:57 PM 34.8461 -84.7372 169° South 428 493 41,000  Level Atlanta Center
Sun 03:54:58 PM 34.7317 -84.7086 168° South 428 493 41,000  Level Atlanta Center
Sun 03:55:58 PM 34.6150 -84.6747 167° South 428 493 41,000  Level Atlanta Center
Sun 03:56:58 PM 34.4942 -84.6461 169° South 435 501 41,000  Level Atlanta Center
Sun 03:57:58 PM 34.3794 -84.6178 168° South 440 506 41,000  Level Atlanta Center
Sun 03:58:58 PM 34.2647 -84.5892 168° South 435 501 41,000  Level Atlanta Center
Sun 03:59:58 PM 34.1458 -84.5633 170° South 429 494 41,000  Level Atlanta Center
Sun 04:00:58 PM 34.0269 -84.5350 169° South 435 501 41,000  Level Atlanta Center
Sun 04:01:58 PM 33.9186 -84.5069 168° South 421 484 41,000  Level Atlanta Center
Sun 04:02:58 PM 33.8039 -84.4814 170° South 421 484 41,000  Level Atlanta Center
Sun 04:03:58 PM 33.6892 -84.4533 168° South 416 479 41,000  Level Atlanta Center
Sun 04:04:58 PM 33.5808 -84.4003 158° South 410 472 41,000 50 Level Atlanta Center
Sun 04:05:58 PM 33.4808 -84.3128 144° Southeast 437 503 41,100 700 Climbing Atlanta Center
Sun 04:06:58 PM 33.3808 -84.2303 145° Southeast 437 503 42,400 950 Climbing Atlanta Center
Sun 04:07:58 PM 33.2808 -84.1481 145° Southeast 437 503 43,000 300 Climbing Atlanta Center
Sun 04:08:58 PM 33.1744 -84.0636 146° Southeast 449 517 43,000  Level Atlanta Center
Sun 04:09:58 PM 33.0678 -83.9769 146° Southeast 459 528 43,000  Level Atlanta Center
Sun 04:10:58 PM 32.9717 -83.9050 148° Southeast 459 528 43,000  Level Atlanta Center
Sun 04:11:58 PM 32.8631 -83.8186 146° Southeast 464 534 43,000  Level Atlanta Center
Sun 04:13:39 PM 32.6714 -83.6625 146° Southeast 462 532 43,000  Level Jacksonville Center
Sun 04:14:39 PM 32.5697 -83.5828 147° Southeast 462 532 43,000  Level Jacksonville Center
Sun 04:15:39 PM 32.4678 -83.4983 145° Southeast 450 518 43,000  Level Jacksonville Center
Sun 04:17:00 PM 32.3374 -83.3988 147° Southeast  Level FlightAware Approximate
Sun 04:18:39 PM 32.1578 -83.2583 147° Southeast 438 504 43,000  Level Jacksonville Center
Sun 04:20:00 PM 32.0226 -83.1685 151° Southeast  Level Estimated
Sun 04:20:39 PM 31.9492 -83.0958 151° Southeast 443 510 43,000  Level Jacksonville Center
Sun 04:21:39 PM 31.8428 -83.0147 147° Southeast 448 516 43,000  Level Jacksonville Center
Sun 04:22:39 PM 31.7364 -82.9317 146° Southeast 453 521 43,000  Level Jacksonville Center
Sun 04:23:39 PM 31.6300 -82.8511 147° Southeast 453 521 43,000  Level Jacksonville Center
Sun 04:24:00 PM 31.6613 -82.8850 147° Southeast  Level FlightAware Approximate
Sun 04:24:39 PM 31.5464 -82.7853 146° Southeast 453 521 43,000  Level Jacksonville Center
Sun 04:25:39 PM 31.4314 -82.6978 147° Southeast 459 528 43,000  Level Jacksonville Center
Sun 04:26:39 PM 31.3269 -82.6225 148° Southeast 453 521 43,000  Level Jacksonville Center
Sun 04:27:39 PM 31.2222 -82.5428 147° Southeast 453 521 43,000  Level Jacksonville Center
Sun 04:28:39 PM 31.1156 -82.4631 147° Southeast 453 521 43,000  Level Jacksonville Center
Sun 04:29:39 PM 31.0108 -82.3836 147° Southeast 453 521 43,000  Level Jacksonville Center
Sun 04:30:39 PM 30.9042 -82.3042 147° Southeast 453 521 43,000  Level Jacksonville Center
Sun 04:31:39 PM 30.7992 -82.2203 146° Southeast 453 521 43,000  Level Jacksonville Center
Sun 04:32:39 PM 30.6903 -82.1414 148° Southeast 459 528 43,000  Level Jacksonville Center
Sun 04:33:39 PM 30.5833 -82.0600 147° Southeast 459 528 43,000  Level Jacksonville Center
Sun 04:34:39 PM 30.4656 -81.9647 145° Southeast 464 534 43,000 -100 Level Jacksonville Center
Sun 04:35:39 PM 30.3586 -81.8864 148° Southeast 471 542 42,800 -1,100 Descending Jacksonville Center
Sun 04:37:00 PM 30.2287 -81.7904 148° Southeast  Level FlightAware Approximate
Sun 04:37:39 PM 30.1422 -81.7278 148° Southeast 459 528 39,700  Level Jacksonville Center
Sun 04:38:39 PM 30.0350 -81.6522 149° Southeast 459 528 38,500 -850 Descending Jacksonville Center
Sun 04:39:39 PM 29.9483 -81.5406 132° Southeast 447 514 38,000 -600 Descending Jacksonville Center
Sun 04:40:39 PM 29.8800 -81.4050 120° Southeast 466 536 37,300 -1,000 Descending Jacksonville Center
Sun 04:41:39 PM 29.8117 -81.2719 121° Southeast 478 550 36,000 -1,150 Descending Jacksonville Center
Sun 04:42:39 PM 29.7267 -81.1586 131° Southeast 478 550 35,000 -600 Descending Jacksonville Center
Sun 04:43:39 PM 29.6131 -81.0986 155° Southeast 451 519 34,800 -500 Descending Jacksonville Center
Sun 04:44:39 PM 29.4914 -81.0578 164° South 436 502 34,000 -1,567 Descending Jacksonville Center
Sun 04:46:39 PM 29.2500 -80.9792 164° South 452 520 30,100 -2,133 Descending Jacksonville Center
Sun 04:47:39 PM 29.1431 -80.9431 164° South 452 520 27,600 -2,650 Descending Jacksonville Center
Sun 04:48:39 PM 29.0236 -80.9075 165° South 452 520 24,800 -2,061 Descending Jacksonville Center
Sun 04:50:22 PM 28.8317 -80.8464 164° South 421 484 22,000 -1,031 Descending Miami Center
Sun 04:51:22 PM 28.7094 -80.8111 166° South 409 471 22,000 -700 Level Miami Center
Sun 04:52:22 PM 28.6019 -80.7742 163° South 414 476 20,600 -1,450 Descending Miami Center
Sun 04:53:22 PM 28.5025 -80.7447 165° South 409 471 19,100 -1,500 Descending Miami Center
Sun 04:54:22 PM 28.3950 -80.7128 165° South 402 463 17,600 -1,600 Descending Miami Center
Sun 04:55:22 PM 28.2814 -80.6733 163° South 402 463 15,900 -2,050 Descending Miami Center
Sun 04:56:22 PM 28.1825 -80.6231 156° South 391 450 13,500 -2,500 Descending Miami Center
Sun 04:57:22 PM 28.1003 -80.5708 151° Southeast 380 437 10,900 -1,750 Descending Miami Center
Sun 04:58:22 PM 28.0183 -80.5094 147° Southeast 372 428 10,000 -1,400 Descending Miami Center
Sun 04:59:22 PM 27.9386 -80.4503 147° Southeast 343 395 8,100 -2,500 Descending Miami Center
Sun 05:00:22 PM 27.8708 -80.3989 146° Southeast 308 354 5,000 -2,850 Descending Miami Center
Sun 05:01:22 PM 27.8025 -80.3733 162° South 273 314 2,400 -1,200 Descending Miami Center
Sun 05:03:00 PM 27.6500 -80.4167 106° East  Level FlightAware Approximate
Sun 05:03:22 PM 27.6858 -80.3650 106° East 224 258 1,400  Level Miami Center
Sun 05:04:22 PM 27.6419 -80.3731 189° South 161 185 800 -650 Descending Miami Center
Sun 05:05:22 PM 27.6494 -80.4039 285° West 92 106 100 -700 Descending Miami Center

Login

Don't have an account? Register now (free) for customized features, flight alerts, and more!